createdAt,value
2018-02-22T00:00:16.465Z,76.77
2018-02-22T00:02:44.972Z,69.17
2018-02-22T00:05:13.492Z,65.80
2018-02-22T00:07:42.822Z,61.30
2018-02-22T00:10:11.358Z,66.43
2018-02-22T00:12:39.887Z,70.57
2018-02-22T00:15:08.408Z,71.17
2018-02-22T00:17:36.915Z,72.90
2018-02-22T00:20:05.480Z,70.60
2018-02-22T00:22:34.021Z,74.57
2018-02-22T00:25:02.560Z,70.53
2018-02-22T00:27:31.681Z,71.70
2018-02-22T00:30:00.219Z,61.07
2018-02-22T00:32:28.859Z,71.07
2018-02-22T00:34:57.367Z,73.10
2018-02-22T00:37:25.872Z,68.37
2018-02-22T00:39:54.401Z,64.67
2018-02-22T00:42:22.925Z,73.47
2018-02-22T00:44:51.499Z,69.20
2018-02-22T00:47:20.050Z,61.70
2018-02-22T00:49:48.783Z,67.23
2018-02-22T00:52:17.307Z,67.10
2018-02-22T00:54:46.592Z,65.77
2018-02-22T00:57:15.923Z,68.63
2018-02-22T00:59:44.461Z,67.90
2018-02-22T01:02:13.061Z,58.93
2018-02-22T01:04:42.345Z,68.37
2018-02-22T01:07:10.883Z,67.03
2018-02-22T01:09:39.440Z,67.37
2018-02-22T01:12:07.960Z,62.47
2018-02-22T01:14:37.240Z,61.30
2018-02-22T01:17:05.788Z,69.27
2018-02-22T01:19:35.076Z,69.37
2018-02-22T01:22:03.652Z,64.13
2018-02-22T01:24:32.147Z,67.20
2018-02-22T01:27:01.445Z,70.10
2018-02-22T01:29:30.739Z,67.83
2018-02-22T01:31:59.262Z,72.43
2018-02-22T01:34:27.848Z,63.73
2018-02-22T01:36:56.383Z,65.50
2018-02-22T01:39:24.897Z,59.77
2018-02-22T01:41:53.416Z,65.70
2018-02-22T01:44:21.977Z,61.43
2018-02-22T01:46:50.541Z,59.70
2018-02-22T01:49:19.058Z,64.97
2018-02-22T01:51:47.583Z,59.40
2018-02-22T01:54:16.884Z,58.03
2018-02-22T01:56:46.220Z,62.17
2018-02-22T01:59:14.802Z,64.90
2018-02-22T02:01:43.380Z,61.07
2018-02-22T02:04:11.883Z,63.10
2018-02-22T02:06:40.413Z,60.67
2018-02-22T02:09:09.708Z,53.13
2018-02-22T02:11:38.291Z,63.03
2018-02-22T02:14:06.812Z,57.87
2018-02-22T02:16:35.316Z,55.97
2018-02-22T02:19:03.833Z,63.90
2018-02-22T02:21:32.402Z,59.67
2018-02-22T02:24:00.982Z,60.57
2018-02-22T02:26:29.624Z,61.47
2018-02-22T02:28:58.234Z,59.67
2018-02-22T02:31:26.808Z,57.87
2018-02-22T02:33:55.400Z,55.53
2018-02-22T02:36:23.957Z,60.37
2018-02-22T02:38:52.593Z,54.30
2018-02-22T02:41:21.152Z,57.03
2018-02-22T02:43:49.733Z,57.23
2018-02-22T02:46:18.343Z,63.33
2018-02-22T02:48:46.921Z,63.87
2018-02-22T02:51:15.541Z,67.37
2018-02-22T02:53:44.121Z,54.27
2018-02-22T02:56:12.695Z,57.80
2018-02-22T02:58:42.048Z,65.87
2018-02-22T03:01:10.633Z,58.10
2018-02-22T03:03:39.270Z,61.10
2018-02-22T03:06:08.590Z,56.37
2018-02-22T03:08:37.133Z,52.57
2018-02-22T03:11:05.710Z,64.37
2018-02-22T03:13:34.278Z,64.20
2018-02-22T03:16:02.905Z,61.60
2018-02-22T03:18:32.264Z,69.50
2018-02-22T03:21:00.834Z,67.07
2018-02-22T03:23:29.398Z,61.63
2018-02-22T03:25:57.958Z,52.03
2018-02-22T03:28:26.588Z,57.20
2018-02-22T03:30:55.167Z,55.37
2018-02-22T03:33:23.762Z,54.93
2018-02-22T03:35:52.316Z,56.13
2018-02-22T03:38:20.887Z,54.00
2018-02-22T03:40:49.505Z,62.37
2018-02-22T03:43:18.080Z,64.27
2018-02-22T03:45:46.647Z,56.50
2018-02-22T03:48:15.227Z,65.33
2018-02-22T03:50:43.787Z,64.60
2018-02-22T03:53:13.184Z,60.83
2018-02-22T03:55:42.541Z,53.00
2018-02-22T03:58:11.118Z,63.13
2018-02-22T04:00:39.733Z,60.60
2018-02-22T04:03:08.304Z,52.30
2018-02-22T04:05:36.931Z,55.27
2018-02-22T04:08:05.498Z,59.23
2018-02-22T04:10:34.817Z,69.03
2018-02-22T04:13:03.446Z,62.23
2018-02-22T04:15:32.022Z,57.73
2018-02-22T04:18:00.692Z,64.93
2018-02-22T04:20:30.122Z,47.83
2018-02-22T04:22:58.770Z,62.90
2018-02-22T04:25:27.362Z,62.43
2018-02-22T04:27:55.983Z,63.03
2018-02-22T04:30:24.664Z,62.43
2018-02-22T04:32:53.271Z,58.17
2018-02-22T04:35:22.626Z,68.23
2018-02-22T04:37:51.260Z,64.60
2018-02-22T04:40:20.630Z,64.00
2018-02-22T04:42:49.291Z,66.77
2018-02-22T04:45:17.878Z,59.47
2018-02-22T04:47:46.498Z,64.47
2018-02-22T04:50:15.123Z,63.20
2018-02-22T04:52:43.759Z,58.93
2018-02-22T04:55:12.410Z,61.07
2018-02-22T04:57:40.981Z,61.43
2018-02-22T05:00:09.598Z,61.47
2018-02-22T05:02:38.277Z,54.50
2018-02-22T05:05:06.899Z,56.70
2018-02-22T05:07:36.303Z,60.17
2018-02-22T05:10:05.694Z,59.07
2018-02-22T05:12:34.321Z,58.77
2018-02-22T05:15:02.917Z,56.57
2018-02-22T05:17:31.513Z,58.70
2018-02-22T05:20:00.159Z,63.00
2018-02-22T05:22:28.782Z,66.07
2018-02-22T05:24:57.409Z,62.37
2018-02-22T05:27:26.795Z,58.00
2018-02-22T05:29:55.422Z,63.57
2018-02-22T05:32:24.057Z,66.17
2018-02-22T05:34:52.690Z,62.63
2018-02-22T05:37:21.301Z,58.97
2018-02-22T05:39:49.899Z,64.23
2018-02-22T05:42:18.562Z,65.77
2018-02-22T05:44:47.224Z,64.47
2018-02-22T05:47:15.863Z,65.13
2018-02-22T05:49:44.463Z,68.23
2018-02-22T05:52:13.843Z,59.20
2018-02-22T05:54:42.454Z,61.00
2018-02-22T05:57:12.033Z,65.73
2018-02-22T05:59:40.613Z,63.43
2018-02-22T06:02:09.213Z,61.83
2018-02-22T06:04:37.826Z,55.00
2018-02-22T06:07:06.495Z,59.30
2018-02-22T06:09:35.905Z,59.57
2018-02-22T06:12:05.270Z,48.30
2018-02-22T06:14:33.884Z,60.97
2018-02-22T06:17:03.245Z,62.23
2018-02-22T06:19:31.906Z,58.57
2018-02-22T06:22:00.683Z,54.73
2018-02-22T06:24:29.543Z,59.97
2018-02-22T06:26:59.083Z,59.93
2018-02-22T06:29:27.834Z,57.93
2018-02-22T06:31:57.432Z,59.97
2018-02-22T06:34:26.166Z,62.43
2018-02-22T06:36:54.933Z,56.77
2018-02-22T06:39:23.633Z,56.80
2018-02-22T06:41:52.391Z,63.50
2018-02-22T06:44:21.984Z,60.53
2018-02-22T06:46:50.733Z,53.73
2018-02-22T06:49:19.458Z,60.13
2018-02-22T06:51:48.158Z,61.23
2018-02-22T06:54:17.701Z,60.93
2018-02-22T06:56:46.557Z,53.53
2018-02-22T06:59:16.184Z,55.13
2018-02-22T07:01:44.938Z,50.30
2018-02-22T07:04:14.501Z,47.07
2018-02-22T07:06:43.366Z,53.73
2018-02-22T07:09:11.984Z,37.37
2018-02-22T07:11:40.624Z,45.17
2018-02-22T07:14:09.814Z,48.73
2018-02-22T07:16:39.173Z,43.23
2018-02-22T07:19:07.786Z,47.33
2018-02-22T07:21:37.193Z,46.23
2018-02-22T07:24:06.591Z,45.90
2018-02-22T07:26:35.946Z,46.03
2018-02-22T07:29:04.581Z,43.23
2018-02-22T07:31:33.975Z,39.00
2018-02-22T07:34:02.625Z,44.77
2018-02-22T07:36:31.287Z,45.07
2018-02-22T07:38:59.945Z,41.80
2018-02-22T07:41:29.303Z,39.73
2018-02-22T07:43:57.906Z,43.00
2018-02-22T07:46:26.537Z,41.87
2018-02-22T07:48:55.205Z,39.80
2018-02-22T07:51:23.828Z,50.67
2018-02-22T07:53:52.432Z,46.17
2018-02-22T07:56:21.093Z,49.03
2018-02-22T07:58:49.712Z,46.50
2018-02-22T08:01:18.325Z,43.37
2018-02-22T08:03:46.968Z,40.37
2018-02-22T08:06:15.640Z,44.90
2018-02-22T08:08:44.290Z,49.60
2018-02-22T08:11:13.913Z,49.57
2018-02-22T08:13:42.581Z,40.70
2018-02-22T08:16:11.266Z,49.83
2018-02-22T08:18:39.922Z,43.70
2018-02-22T08:21:09.369Z,39.63
2018-02-22T08:23:38.038Z,46.07
2018-02-22T08:26:06.731Z,49.90
2018-02-22T08:28:35.452Z,40.67
2018-02-22T08:31:04.074Z,43.67
2018-02-22T08:33:33.521Z,46.80
2018-02-22T08:36:02.124Z,44.37
2018-02-22T08:38:30.788Z,39.40
2018-02-22T08:40:59.420Z,47.77
2018-02-22T08:43:28.092Z,50.90
2018-02-22T08:45:56.782Z,37.03
2018-02-22T08:48:26.192Z,42.60
2018-02-22T08:50:55.646Z,40.03
2018-02-22T08:53:24.285Z,45.73
2018-02-22T08:55:53.662Z,44.67
2018-02-22T08:58:22.336Z,45.77
2018-02-22T09:00:51.041Z,46.17
2018-02-22T09:03:19.707Z,42.33
2018-02-22T09:05:48.367Z,42.30
2018-02-22T09:08:17.003Z,44.63
2018-02-22T09:10:45.625Z,45.13
2018-02-22T09:13:14.280Z,44.47
2018-02-22T09:15:43.717Z,44.20
2018-02-22T09:18:12.410Z,47.23
2018-02-22T09:20:41.032Z,48.47
2018-02-22T09:23:09.661Z,46.87
2018-02-22T09:25:38.296Z,42.27
2018-02-22T09:28:07.027Z,49.50
2018-02-22T09:30:35.684Z,47.07
2018-02-22T09:33:05.082Z,45.93
2018-02-22T09:35:33.711Z,46.93
2018-02-22T09:38:02.369Z,44.77
2018-02-22T09:40:31.783Z,44.10
2018-02-22T09:43:01.246Z,44.43
2018-02-22T09:45:29.923Z,42.70
2018-02-22T09:47:58.591Z,36.90
2018-02-22T09:50:27.206Z,49.93
2018-02-22T09:52:55.942Z,39.23
2018-02-22T09:55:30.868Z,41.70
2018-02-22T09:57:59.528Z,45.53
2018-02-22T10:00:28.917Z,43.57
2018-02-22T10:02:57.553Z,35.37
2018-02-22T10:05:26.176Z,44.33
2018-02-22T10:07:54.882Z,44.43
2018-02-22T10:10:24.356Z,43.53
2018-02-22T10:12:53.026Z,47.67
2018-02-22T10:15:21.687Z,40.77
2018-02-22T10:17:50.306Z,44.83
2018-02-22T10:20:18.943Z,43.70
2018-02-22T10:22:47.646Z,43.03
2018-02-22T10:25:16.274Z,44.00
2018-02-22T10:27:44.963Z,43.07
2018-02-22T10:30:13.696Z,40.90
2018-02-22T10:32:43.082Z,38.50
2018-02-22T10:35:12.560Z,45.03
2018-02-22T10:37:41.953Z,43.77
2018-02-22T10:40:10.680Z,39.73
2018-02-22T10:42:39.306Z,38.30
2018-02-22T10:45:07.913Z,40.07
2018-02-22T10:47:36.606Z,44.80
2018-02-22T10:50:06.046Z,43.03
2018-02-22T10:52:35.449Z,42.70
2018-02-22T10:55:04.069Z,45.03
2018-02-22T10:57:33.483Z,36.27
2018-02-22T11:00:02.149Z,41.40
2018-02-22T11:02:36.297Z,41.50
2018-02-22T11:05:05.000Z,47.80
2018-02-22T11:07:34.374Z,45.43
2018-02-22T11:10:02.992Z,41.13
2018-02-22T11:12:32.386Z,32.90
2018-02-22T11:15:01.734Z,39.97
2018-02-22T11:17:30.415Z,42.23
2018-02-22T11:19:59.045Z,41.37
2018-02-22T11:22:27.671Z,46.77
2018-02-22T11:24:56.463Z,40.20
2018-02-22T11:27:25.111Z,36.87
2018-02-22T11:29:54.580Z,39.17
2018-02-22T11:32:23.220Z,34.20
2018-02-22T11:34:51.871Z,40.63
2018-02-22T11:37:20.480Z,37.43
2018-02-22T11:39:49.139Z,38.07
2018-02-22T11:42:17.810Z,38.37
2018-02-22T11:44:46.398Z,41.40
2018-02-22T11:47:15.054Z,39.30
2018-02-22T11:49:44.513Z,35.27
2018-02-22T11:52:13.923Z,36.77
2018-02-22T11:54:42.604Z,37.40
2018-02-22T11:57:12.018Z,40.33
2018-02-22T11:59:40.645Z,40.27
2018-02-22T12:02:09.321Z,46.97
2018-02-22T12:04:38.100Z,41.30
2018-02-22T12:07:07.641Z,41.63
2018-02-22T12:09:36.334Z,36.70
2018-02-22T12:12:06.101Z,40.80
2018-02-22T12:14:34.743Z,38.27
2018-02-22T12:17:03.769Z,39.77
2018-02-22T12:19:32.880Z,37.27
2018-02-22T12:22:02.467Z,44.63
2018-02-22T12:24:31.322Z,34.73
2018-02-22T12:27:01.091Z,37.33
2018-02-22T12:29:29.937Z,35.30
2018-02-22T12:31:59.549Z,30.30
2018-02-22T12:34:28.284Z,39.53
2018-02-22T12:36:56.977Z,36.43
2018-02-22T12:39:25.658Z,30.53
2018-02-22T12:41:54.353Z,40.53
2018-02-22T12:44:23.044Z,31.30
2018-02-22T12:46:51.749Z,34.07
2018-02-22T12:49:21.225Z,39.60
2018-02-22T12:51:49.973Z,41.17
2018-02-22T12:54:18.666Z,39.63
2018-02-22T12:56:47.413Z,31.50
2018-02-22T12:59:19.602Z,37.77
2018-02-22T13:01:48.332Z,35.30
2018-02-22T13:04:17.038Z,32.03
2018-02-22T13:06:45.715Z,35.20
2018-02-22T13:09:14.426Z,40.83
2018-02-22T13:11:43.840Z,42.33
2018-02-22T13:14:12.549Z,38.00
2018-02-22T13:16:41.200Z,38.33
2018-02-22T13:19:09.828Z,37.40
2018-02-22T13:21:38.441Z,40.20
2018-02-22T13:24:07.045Z,37.00
2018-02-22T13:26:36.470Z,38.00
2018-02-22T13:29:05.098Z,41.07
2018-02-22T13:31:33.743Z,40.77
2018-02-22T13:34:20.159Z,38.97
2018-02-22T13:36:48.805Z,34.93
2018-02-22T13:39:18.231Z,38.20
2018-02-22T13:41:46.913Z,38.53
2018-02-22T13:44:33.194Z,35.23
2018-02-22T13:47:02.680Z,36.27
2018-02-22T13:49:49.019Z,36.53
2018-02-22T13:52:17.703Z,37.50
2018-02-22T13:54:47.105Z,40.07
2018-02-22T13:57:20.377Z,29.77
2018-02-22T13:59:49.736Z,36.40
2018-02-22T14:02:29.166Z,31.50
2018-02-22T14:04:57.847Z,37.53
2018-02-22T14:07:26.511Z,36.03
2018-02-22T14:09:55.124Z,33.00
2018-02-22T14:12:23.827Z,37.50
2018-02-22T14:14:52.468Z,39.77
2018-02-22T14:17:21.244Z,39.47
2018-02-22T14:19:49.942Z,38.17
2018-02-22T14:22:18.733Z,38.23
2018-02-22T14:24:47.398Z,34.90
2018-02-22T14:27:16.067Z,33.60
2018-02-22T14:29:45.459Z,32.63
2018-02-22T14:32:14.190Z,34.60
2018-02-22T14:34:42.810Z,41.93
2018-02-22T14:37:11.439Z,29.70
2018-02-22T14:39:40.775Z,37.60
2018-02-22T14:42:10.345Z,33.13
2018-02-22T14:44:39.045Z,37.70
2018-02-22T14:47:07.672Z,41.70
2018-02-22T14:49:36.276Z,39.97
2018-02-22T14:52:04.883Z,37.43
2018-02-22T14:54:33.455Z,41.23
2018-02-22T14:57:02.911Z,39.37
2018-02-22T14:59:31.492Z,37.03
2018-02-22T15:02:00.143Z,41.03
2018-02-22T15:04:28.780Z,39.70
2018-02-22T15:06:57.416Z,44.80
2018-02-22T15:09:26.116Z,43.40
2018-02-22T15:11:54.755Z,39.33
2018-02-22T15:14:24.140Z,39.83
2018-02-22T15:16:52.760Z,43.90
2018-02-22T15:19:22.130Z,39.33
2018-02-22T15:21:50.799Z,40.43
2018-02-22T15:24:19.475Z,40.33
2018-02-22T15:26:48.100Z,36.53
2018-02-22T15:29:17.474Z,42.63
2018-02-22T15:31:47.086Z,42.40
2018-02-22T15:34:15.781Z,45.13
2018-02-22T15:36:44.385Z,43.77
2018-02-22T15:39:13.022Z,44.73
2018-02-22T15:41:41.648Z,39.97
2018-02-22T15:44:11.028Z,37.83
2018-02-22T15:46:39.727Z,41.17
2018-02-22T15:49:13.063Z,40.07
2018-02-22T15:51:41.840Z,41.13
2018-02-22T15:54:10.538Z,46.07
2018-02-22T15:56:39.163Z,40.33
2018-02-22T15:59:07.789Z,43.90
2018-02-22T16:01:36.553Z,48.83
2018-02-22T16:04:05.275Z,44.63
2018-02-22T16:06:33.909Z,50.83
2018-02-22T16:09:02.532Z,47.37
2018-02-22T16:11:31.225Z,46.50
2018-02-22T16:13:59.854Z,43.23
2018-02-22T16:16:28.496Z,45.00
2018-02-22T16:18:58.062Z,46.37
2018-02-22T16:21:26.747Z,48.97
2018-02-22T16:23:55.403Z,61.20
2018-02-22T16:26:24.011Z,42.37
2018-02-22T16:28:52.647Z,45.43
2018-02-22T16:31:21.208Z,36.73
2018-02-22T16:33:50.594Z,43.43
2018-02-22T16:36:19.949Z,43.07
2018-02-22T16:38:49.411Z,44.73
2018-02-22T16:41:18.056Z,42.60
2018-02-22T16:43:46.643Z,43.17
2018-02-22T16:46:15.220Z,43.33
2018-02-22T16:48:43.869Z,51.93
2018-02-22T16:51:12.442Z,38.13
2018-02-22T16:53:41.012Z,44.13
2018-02-22T17:58:05.735Z,44.53
2018-02-22T18:00:35.069Z,45.93
2018-02-22T18:03:03.605Z,44.00
2018-02-22T18:05:32.831Z,46.23
2018-02-22T18:08:02.147Z,44.27
2018-02-22T18:10:30.702Z,51.80
2018-02-22T18:13:00.016Z,46.10
2018-02-22T18:15:28.619Z,47.47
2018-02-22T18:17:57.192Z,45.17
2018-02-22T18:20:25.759Z,45.27
2018-02-22T18:22:54.370Z,46.30
2018-02-22T18:25:22.933Z,45.40
2018-02-22T18:27:51.474Z,53.47
2018-02-22T18:30:19.999Z,45.00
2018-02-22T18:32:48.622Z,48.17
2018-02-22T18:35:17.190Z,49.93
2018-02-22T18:37:51.180Z,44.67
2018-02-22T18:40:25.215Z,49.47
2018-02-22T18:42:53.760Z,48.50
2018-02-22T18:45:22.354Z,41.83
2018-02-22T18:47:50.917Z,52.00
2018-02-22T18:50:20.191Z,49.00
2018-02-22T18:52:48.837Z,46.07
2018-02-22T18:55:17.401Z,43.70
2018-02-22T18:57:45.909Z,41.77
2018-02-22T19:00:14.407Z,49.57
2018-02-22T19:02:42.921Z,49.63
2018-02-22T19:05:12.358Z,41.43
2018-02-22T19:07:40.917Z,47.37
2018-02-22T19:10:10.335Z,44.40
2018-02-22T19:12:39.022Z,46.60
2018-02-22T19:15:08.016Z,46.73
2018-02-22T19:17:36.771Z,47.00
2018-02-22T19:20:05.288Z,44.77
2018-02-22T19:22:33.833Z,47.63
2018-02-22T19:25:02.388Z,44.70
2018-02-22T19:27:30.947Z,47.00
2018-02-22T19:29:59.545Z,47.60
2018-02-22T19:32:28.092Z,48.57
2018-02-22T19:34:56.656Z,54.37
2018-02-22T19:37:26.003Z,46.97
2018-02-22T19:39:54.565Z,47.40
2018-02-22T19:42:23.332Z,49.57
2018-02-22T19:44:52.640Z,46.77
2018-02-22T19:47:21.188Z,51.30
2018-02-22T19:49:49.805Z,47.30
2018-02-22T19:52:19.126Z,46.83
2018-02-22T19:54:47.794Z,50.53
2018-02-22T19:57:16.356Z,50.33
2018-02-22T19:59:44.923Z,46.90
2018-02-22T20:02:13.493Z,48.33
2018-02-22T20:04:42.048Z,49.10
2018-02-22T20:07:10.641Z,52.40
2018-02-22T20:09:39.199Z,51.30
2018-02-22T20:12:07.701Z,54.13
2018-02-22T20:14:36.913Z,54.77
2018-02-22T20:17:05.605Z,48.87
2018-02-22T20:19:34.218Z,51.00
2018-02-22T20:22:02.793Z,55.60
2018-02-22T20:24:31.375Z,52.20
2018-02-22T20:26:59.937Z,51.30
2018-02-22T20:29:28.475Z,53.07
2018-02-22T20:31:57.124Z,54.93
2018-02-22T20:34:26.507Z,56.30
2018-02-22T20:36:55.108Z,53.37
2018-02-22T20:39:23.690Z,54.87
2018-02-22T20:41:52.272Z,52.07
2018-02-22T20:44:20.892Z,51.47
2018-02-22T20:46:49.882Z,57.13
2018-02-22T20:49:18.458Z,52.37
2018-02-22T20:51:57.021Z,55.20
2018-02-22T20:54:25.662Z,54.50
2018-02-22T20:56:54.267Z,57.40
2018-02-22T21:34:18.697Z,55.50
2018-02-22T21:36:47.955Z,56.77
2018-02-22T21:39:16.665Z,56.57
2018-02-22T21:41:45.395Z,53.17
2018-02-22T21:44:14.512Z,48.70
2018-02-22T21:46:44.012Z,57.43
2018-02-22T21:49:12.635Z,52.47
2018-02-22T21:51:41.387Z,51.60
2018-02-22T21:54:10.108Z,57.77
2018-02-22T21:56:39.743Z,51.50
2018-02-22T21:59:09.642Z,55.97
2018-02-22T22:01:39.787Z,52.80
2018-02-22T22:04:08.518Z,58.53
2018-02-22T22:06:37.215Z,57.40
2018-02-22T22:09:05.973Z,57.53
2018-02-22T22:11:34.632Z,56.97
2018-02-22T22:14:04.117Z,53.90
2018-02-22T22:16:32.844Z,59.50
2018-02-22T22:19:03.022Z,55.00
2018-02-22T22:21:32.384Z,55.67
2018-02-22T22:24:04.056Z,54.40
2018-02-22T22:26:32.810Z,57.87
2018-02-22T22:29:02.072Z,59.67
2018-02-22T22:31:30.777Z,55.77
2018-02-22T22:34:00.185Z,57.03
2018-02-22T22:36:29.620Z,57.43
2018-02-22T22:38:58.271Z,54.90
2018-02-22T22:41:27.653Z,54.53
2018-02-22T22:43:59.117Z,59.70
2018-02-22T22:46:28.554Z,56.90
2018-02-22T22:48:57.192Z,61.50
2018-02-22T22:51:25.859Z,56.40
2018-02-22T22:53:55.091Z,56.60
2018-02-22T22:56:23.777Z,60.90
2018-02-22T22:58:54.050Z,58.47
2018-02-22T23:01:22.850Z,57.57
2018-02-22T23:03:51.514Z,56.23
2018-02-22T23:06:20.194Z,54.13
2018-02-22T23:08:48.933Z,59.13
2018-02-22T23:11:17.609Z,61.00
2018-02-22T23:13:47.415Z,59.70
2018-02-22T23:16:16.110Z,58.33
2018-02-22T23:18:44.775Z,53.07
2018-02-22T23:21:13.467Z,55.57
2018-02-22T23:23:42.852Z,60.67
2018-02-22T23:26:11.650Z,59.60
2018-02-22T23:28:41.708Z,57.43
2018-02-22T23:31:12.008Z,56.73
2018-02-22T23:33:42.487Z,59.47
2018-02-22T23:36:11.227Z,61.47
2018-02-22T23:38:40.034Z,59.30
2018-02-22T23:41:12.805Z,59.70
2018-02-22T23:43:42.276Z,58.07
2018-02-22T23:46:10.983Z,57.10
2018-02-22T23:48:39.615Z,59.17
2018-02-22T23:51:08.332Z,63.90
2018-02-22T23:53:37.070Z,51.10
2018-02-22T23:56:11.261Z,59.67
2018-02-22T23:58:41.202Z,59.20
